Huvudsida
METAR-TAF:

METAR-TAF

Flygplatser :

Leknes flygplats

Leknes, Norge

latitud: 68-09N, longitud: 013-37E, höjd: 2 m

Aktuellt väderrapport

Denna rapport gjordes för 17 minuter sedan, klockan 18:50 UTC
Vind 9 kt från syd/sydväst
Temperatur 5°C
Fuktighet 93%
Tryck 1027 hPa
Sikt 10 km eller mer
Få moln på en höjd av 1000 ft
Spridda moln på en höjd av 1500 ft
Brutna moln på en höjd av 2000 ft
lätt regn

METAR: ENLK 131850Z 20009KT 9999 -RA FEW010 SCT015 BKN020 05/04 Q1027

Tid: 20:07 (19:07 UTC)


TAF: saknas

Aktuella väderrapporter och prognoser från 4000 flygplatser (METAR- och TAF-rapporter).

De tillgängliga stationerna syns som gula och röda prickar på kartan.

För musen över prickarna för att se namnen på stationerna.

Klicka sedan för att få väderrapporter och prognoser.

För att ändra kartan: Klicka på de gröna knapparna med ett svart kors på för att zooma in; den gröna knappen med ett streck på för att zooma ut; eller på de gröna pilarna för angränsande kartor.


METAR-TAF: